createdAt,value
2023-01-29T00:01:32.448Z,99.90
2023-01-29T00:03:59.092Z,99.90
2023-01-29T00:06:30.705Z,99.90
2023-01-29T00:08:57.447Z,99.90
2023-01-29T00:11:26.593Z,99.90
2023-01-29T00:13:53.503Z,99.90
2023-01-29T00:16:20.962Z,99.90
2023-01-29T00:18:47.530Z,99.90
2023-01-29T00:21:15.633Z,99.90
2023-01-29T00:23:42.597Z,99.90
2023-01-29T00:26:09.361Z,99.90
2023-01-29T00:28:36.612Z,99.90
2023-01-29T00:31:07.522Z,99.90
2023-01-29T00:33:34.248Z,99.90
2023-01-29T00:36:07.640Z,99.90
2023-01-29T00:38:34.733Z,99.90
2023-01-29T00:41:26.778Z,99.90
2023-01-29T00:44:14.466Z,99.90
2023-01-29T00:46:41.197Z,99.90
2023-01-29T00:49:08.297Z,99.90
2023-01-29T00:51:35.309Z,99.90
2023-01-29T00:54:02.292Z,99.90
2023-01-29T00:56:29.195Z,99.90
2023-01-29T00:58:56.512Z,99.90
2023-01-29T01:01:42.379Z,99.90
2023-01-29T01:04:09.868Z,99.90
2023-01-29T01:06:40.946Z,99.90
2023-01-29T01:09:26.823Z,99.90
2023-01-29T01:11:53.460Z,99.90
2023-01-29T01:14:24.804Z,99.90
2023-01-29T01:16:51.508Z,99.90
2023-01-29T01:19:20.572Z,99.90
2023-01-29T01:21:48.360Z,99.90
2023-01-29T01:24:15.277Z,99.90
2023-01-29T01:26:44.591Z,99.90
2023-01-29T01:29:11.185Z,99.90
2023-01-29T01:31:37.869Z,99.90
2023-01-29T01:34:04.571Z,99.90
2023-01-29T01:36:33.605Z,99.90
2023-01-29T01:39:02.798Z,99.90
2023-01-29T01:41:29.703Z,99.90
2023-01-29T01:43:57.721Z,99.90
2023-01-29T01:46:28.177Z,99.90
2023-01-29T01:49:02.316Z,99.90
2023-01-29T01:51:30.681Z,99.90
2023-01-29T01:53:57.239Z,99.90
2023-01-29T01:56:26.635Z,99.90
2023-01-29T01:58:55.248Z,99.90
2023-01-29T02:01:29.323Z,99.90
2023-01-29T02:04:22.264Z,99.90
2023-01-29T02:07:07.773Z,99.90
2023-01-29T02:10:00.669Z,99.90
2023-01-29T02:12:31.206Z,99.90
2023-01-29T02:14:57.919Z,99.90
2023-01-29T02:17:24.662Z,99.90
2023-01-29T02:20:03.388Z,99.90
2023-01-29T02:22:48.832Z,99.90
2023-01-29T02:25:21.648Z,99.90
2023-01-29T02:27:48.258Z,99.90
2023-01-29T02:30:17.354Z,99.90
2023-01-29T02:32:58.629Z,99.90
2023-01-29T02:35:38.669Z,99.90
2023-01-29T02:38:19.641Z,99.90
2023-01-29T02:41:04.200Z,99.90
2023-01-29T02:43:30.802Z,99.90
2023-01-29T02:46:02.753Z,99.90
2023-01-29T02:48:34.299Z,99.90
2023-01-29T02:51:05.204Z,99.90
2023-01-29T02:53:38.312Z,99.90
2023-01-29T02:56:16.540Z,99.90
2023-01-29T02:58:45.573Z,99.90
2023-01-29T03:01:20.844Z,99.90
2023-01-29T03:03:55.157Z,99.90
2023-01-29T03:06:28.332Z,99.90
2023-01-29T03:09:04.318Z,99.90
2023-01-29T03:11:42.046Z,99.90
2023-01-29T03:14:17.085Z,99.90
2023-01-29T03:16:50.823Z,99.90
2023-01-29T03:19:24.032Z,99.90
2023-01-29T03:21:58.991Z,99.90
2023-01-29T03:24:44.122Z,99.90
2023-01-29T03:27:31.429Z,99.90
2023-01-29T03:30:18.117Z,99.90
2023-01-29T03:32:46.631Z,99.90
2023-01-29T03:35:14.151Z,99.90
2023-01-29T03:37:46.358Z,99.90
2023-01-29T03:40:15.976Z,99.90
2023-01-29T03:43:04.694Z,99.90
2023-01-29T03:45:31.277Z,99.90
2023-01-29T03:48:16.327Z,99.90
2023-01-29T03:51:08.001Z,99.90
2023-01-29T03:53:34.589Z,99.90
2023-01-29T03:56:09.835Z,99.90
2023-01-29T03:58:44.109Z,99.90
2023-01-29T04:01:18.957Z,99.90
2023-01-29T04:04:08.537Z,99.90
2023-01-29T04:06:37.021Z,99.90
2023-01-29T04:09:10.850Z,99.90
2023-01-29T04:11:39.992Z,99.90
2023-01-29T04:14:11.821Z,99.90
2023-01-29T04:16:41.244Z,99.90
2023-01-29T04:19:08.081Z,99.90
2023-01-29T04:21:37.199Z,99.90
2023-01-29T04:24:04.606Z,99.90
2023-01-29T04:26:49.734Z,99.90
2023-01-29T04:29:29.926Z,99.90
2023-01-29T04:31:59.563Z,99.90
2023-01-29T04:34:29.212Z,99.90
2023-01-29T04:36:55.788Z,99.90
2023-01-29T04:39:25.569Z,99.90
2023-01-29T04:42:15.287Z,99.90
2023-01-29T04:44:44.931Z,99.90
2023-01-29T04:47:19.180Z,99.90
2023-01-29T04:49:49.245Z,99.90
2023-01-29T04:52:21.839Z,99.90
2023-01-29T04:54:51.453Z,99.90
2023-01-29T04:57:23.162Z,99.90
2023-01-29T05:00:16.709Z,99.90
2023-01-29T05:02:44.829Z,99.90
2023-01-29T05:05:13.647Z,99.90
2023-01-29T05:07:43.892Z,99.90
2023-01-29T05:10:11.878Z,99.90
2023-01-29T05:12:43.501Z,99.90
2023-01-29T05:15:16.660Z,99.90
2023-01-29T05:17:43.366Z,99.90
2023-01-29T05:20:13.227Z,99.90
2023-01-29T05:22:40.978Z,99.90
2023-01-29T05:25:27.338Z,99.90
2023-01-29T05:28:16.583Z,99.90
2023-01-29T05:30:47.215Z,99.90
2023-01-29T05:33:15.350Z,99.90
2023-01-29T05:35:44.571Z,99.90
2023-01-29T05:38:13.851Z,99.90
2023-01-29T05:40:40.755Z,99.90
2023-01-29T05:43:14.687Z,99.90
2023-01-29T05:45:41.322Z,99.90
2023-01-29T05:48:07.916Z,99.90
2023-01-29T05:50:36.941Z,99.90
2023-01-29T05:53:03.578Z,99.90
2023-01-29T05:55:30.182Z,99.90
2023-01-29T05:57:56.849Z,99.90
2023-01-29T06:00:23.721Z,99.90
2023-01-29T06:02:50.485Z,99.90
2023-01-29T06:05:17.149Z,99.90
2023-01-29T06:07:45.438Z,99.90
2023-01-29T06:10:16.269Z,99.90
2023-01-29T06:12:43.856Z,99.90
2023-01-29T06:15:11.235Z,99.90
2023-01-29T06:17:37.833Z,99.90
2023-01-29T06:20:05.031Z,99.90
2023-01-29T06:22:32.617Z,99.90
2023-01-29T06:24:59.280Z,99.90
2023-01-29T06:27:25.921Z,99.90
2023-01-29T06:29:52.531Z,99.90
2023-01-29T06:32:21.609Z,99.90
2023-01-29T06:34:49.765Z,99.90
2023-01-29T06:37:16.438Z,99.90
2023-01-29T06:39:43.029Z,99.90
2023-01-29T06:42:10.066Z,99.90
2023-01-29T06:44:39.075Z,99.90
2023-01-29T06:47:05.737Z,99.90
2023-01-29T06:49:32.440Z,99.90
2023-01-29T06:52:01.417Z,99.90
2023-01-29T06:54:30.556Z,99.90
2023-01-29T06:56:57.191Z,99.90
2023-01-29T06:59:23.771Z,99.90
2023-01-29T07:01:50.424Z,99.90
2023-01-29T07:04:19.421Z,99.90
2023-01-29T07:06:45.991Z,99.90
2023-01-29T07:09:13.856Z,99.90
2023-01-29T07:11:40.556Z,99.90
2023-01-29T07:14:09.469Z,99.90
2023-01-29T07:16:36.087Z,99.90
2023-01-29T07:19:02.822Z,99.90
2023-01-29T07:21:29.458Z,99.90
2023-01-29T07:23:58.280Z,99.90
2023-01-29T07:26:27.335Z,99.90
2023-01-29T07:28:56.116Z,99.90
2023-01-29T07:31:25.401Z,99.90
2023-01-29T07:33:54.236Z,99.90
2023-01-29T07:36:24.085Z,99.90
2023-01-29T07:38:51.316Z,99.90
2023-01-29T07:41:17.905Z,99.90
2023-01-29T07:43:44.484Z,99.90
2023-01-29T07:46:11.089Z,99.90
2023-01-29T07:48:37.821Z,99.90
2023-01-29T07:51:04.668Z,99.90
2023-01-29T07:53:33.872Z,99.90
2023-01-29T07:56:00.496Z,99.90
2023-01-29T07:58:27.153Z,99.90
2023-01-29T08:00:53.843Z,99.90
2023-01-29T08:03:22.852Z,99.90
2023-01-29T08:05:51.836Z,99.90
2023-01-29T08:08:20.952Z,99.90
2023-01-29T08:10:50.019Z,99.90
2023-01-29T08:13:16.720Z,99.90
2023-01-29T08:15:45.346Z,99.90
2023-01-29T08:18:12.639Z,99.90
2023-01-29T08:20:39.472Z,99.90
2023-01-29T08:23:07.316Z,99.90
2023-01-29T08:25:36.978Z,99.90
2023-01-29T08:28:03.856Z,99.90
2023-01-29T08:30:34.029Z,99.90
2023-01-29T08:33:04.314Z,99.90
2023-01-29T08:35:31.428Z,99.90
2023-01-29T08:38:03.099Z,99.90
2023-01-29T08:40:33.022Z,99.90
2023-01-29T08:43:02.160Z,99.90
2023-01-29T08:45:30.151Z,99.90
2023-01-29T08:47:56.865Z,99.90
2023-01-29T08:50:23.876Z,99.90
2023-01-29T08:52:50.458Z,99.90
2023-01-29T08:55:19.638Z,99.90
2023-01-29T08:57:48.458Z,99.90
2023-01-29T09:00:15.741Z,99.90
2023-01-29T09:02:45.063Z,99.90
2023-01-29T09:05:11.687Z,99.90
2023-01-29T09:07:38.388Z,99.90
2023-01-29T09:10:05.219Z,99.90
2023-01-29T09:12:34.217Z,99.90
2023-01-29T09:15:03.983Z,99.90
2023-01-29T09:17:30.597Z,99.90
2023-01-29T09:19:59.741Z,99.90
2023-01-29T09:22:28.714Z,99.90
2023-01-29T09:24:55.352Z,99.90
2023-01-29T09:27:21.947Z,99.90
2023-01-29T09:29:50.950Z,99.90
2023-01-29T09:32:37.737Z,99.90
2023-01-29T09:35:04.598Z,99.90
2023-01-29T09:37:31.191Z,99.90
2023-01-29T09:39:57.808Z,99.90
2023-01-29T09:42:48.400Z,99.90
2023-01-29T09:45:24.789Z,99.90
2023-01-29T09:47:51.970Z,99.90
2023-01-29T09:50:30.776Z,99.90
2023-01-29T09:53:17.435Z,99.90
2023-01-29T09:55:46.594Z,99.90
2023-01-29T09:58:25.201Z,99.90
2023-01-29T10:00:51.821Z,99.90
2023-01-29T10:03:21.263Z,99.90
2023-01-29T10:05:54.024Z,99.90
2023-01-29T10:08:37.268Z,99.90
2023-01-29T10:11:18.550Z,99.90
2023-01-29T10:13:52.140Z,99.90
2023-01-29T10:16:27.279Z,99.90
2023-01-29T10:19:00.023Z,99.90
2023-01-29T10:21:27.127Z,99.90
2023-01-29T10:23:56.743Z,99.90
2023-01-29T10:26:24.564Z,99.90
2023-01-29T10:28:52.687Z,99.90
2023-01-29T10:31:33.225Z,99.90
2023-01-29T10:34:03.366Z,99.90
2023-01-29T10:36:45.328Z,99.90
2023-01-29T10:39:19.536Z,99.90
2023-01-29T10:41:56.104Z,99.90
2023-01-29T10:44:28.998Z,99.90
2023-01-29T10:46:58.178Z,99.90
2023-01-29T10:49:36.180Z,99.90
2023-01-29T10:52:02.819Z,99.90
2023-01-29T10:54:50.409Z,99.90
2023-01-29T10:57:40.362Z,99.90
2023-01-29T11:00:13.277Z,99.90
2023-01-29T11:02:46.400Z,99.90
2023-01-29T11:05:32.017Z,99.90
2023-01-29T11:08:05.299Z,99.90
2023-01-29T11:10:36.330Z,99.90
2023-01-29T11:13:04.283Z,99.90
2023-01-29T11:15:32.409Z,99.90
2023-01-29T11:18:04.523Z,99.90
2023-01-29T11:20:32.195Z,99.90
2023-01-29T11:23:01.289Z,99.90
2023-01-29T11:25:29.817Z,99.90
2023-01-29T11:28:00.590Z,99.90
2023-01-29T11:30:27.174Z,99.90
2023-01-29T11:33:18.271Z,99.90
2023-01-29T11:35:45.131Z,99.90
2023-01-29T11:38:26.459Z,99.90
2023-01-29T11:40:53.336Z,99.90
2023-01-29T11:43:29.643Z,99.90
2023-01-29T11:45:58.517Z,99.90
2023-01-29T11:48:29.207Z,99.90
2023-01-29T11:51:00.637Z,99.90
2023-01-29T11:53:38.194Z,99.90
2023-01-29T11:56:17.135Z,99.90
2023-01-29T11:58:46.975Z,99.90
2023-01-29T12:01:17.437Z,99.90
2023-01-29T12:03:51.984Z,99.90
2023-01-29T12:06:21.726Z,99.90
2023-01-29T12:08:59.407Z,99.90
2023-01-29T12:11:26.054Z,99.90
2023-01-29T12:13:56.594Z,99.90
2023-01-29T12:16:44.292Z,99.90
2023-01-29T12:19:25.719Z,99.90
2023-01-29T12:21:58.249Z,99.90
2023-01-29T12:24:36.985Z,99.90
2023-01-29T12:27:22.529Z,99.90
2023-01-29T12:30:13.322Z,99.90
2023-01-29T12:33:03.211Z,99.90
2023-01-29T12:35:41.386Z,99.90
2023-01-29T12:38:13.360Z,99.90
2023-01-29T12:40:41.492Z,99.90
2023-01-29T12:43:18.228Z,99.90
2023-01-29T12:45:46.302Z,99.90
2023-01-29T12:48:15.741Z,99.90
2023-01-29T12:50:42.527Z,99.80
2023-01-29T12:53:21.403Z,99.90
2023-01-29T12:55:53.927Z,99.90
2023-01-29T12:58:28.654Z,99.90
2023-01-29T13:00:58.926Z,99.60
2023-01-29T13:03:37.674Z,99.30
2023-01-29T13:06:11.802Z,99.00
2023-01-29T13:08:41.201Z,99.60
2023-01-29T13:11:22.392Z,99.60
2023-01-29T13:13:54.058Z,99.00
2023-01-29T13:16:23.893Z,99.30
2023-01-29T13:18:52.980Z,99.50
2023-01-29T13:21:21.106Z,99.40
2023-01-29T13:23:50.554Z,99.50
2023-01-29T13:26:21.020Z,99.50
2023-01-29T13:28:48.251Z,99.20
2023-01-29T13:31:20.696Z,98.80
2023-01-29T13:34:01.371Z,99.00
2023-01-29T13:36:29.139Z,99.20
2023-01-29T13:39:01.693Z,99.90
2023-01-29T13:41:33.174Z,99.80
2023-01-29T13:44:02.499Z,99.70
2023-01-29T13:46:29.970Z,99.70
2023-01-29T13:49:00.919Z,99.40
2023-01-29T13:51:32.069Z,99.30
2023-01-29T13:54:03.785Z,99.40
2023-01-29T13:56:33.522Z,99.00
2023-01-29T13:59:02.517Z,99.20
2023-01-29T14:01:50.045Z,99.20
2023-01-29T14:04:21.526Z,99.10
2023-01-29T14:06:58.013Z,99.20
2023-01-29T14:09:46.659Z,99.10
2023-01-29T14:12:22.423Z,98.90
2023-01-29T14:14:51.945Z,99.00
2023-01-29T14:17:19.477Z,98.70
2023-01-29T14:19:50.022Z,99.10
2023-01-29T14:22:21.853Z,99.30
2023-01-29T14:24:49.197Z,99.80
2023-01-29T14:27:22.661Z,99.70
2023-01-29T14:29:51.756Z,99.90
2023-01-29T14:32:20.294Z,99.80
2023-01-29T14:34:59.121Z,99.90
2023-01-29T14:37:36.657Z,99.90
2023-01-29T14:40:12.501Z,99.90
2023-01-29T14:42:43.932Z,99.90
2023-01-29T14:45:22.275Z,99.90
2023-01-29T14:47:48.988Z,99.90
2023-01-29T14:50:18.745Z,99.90
2023-01-29T14:52:47.034Z,99.90
2023-01-29T14:55:52.116Z,99.90
2023-01-29T14:58:36.722Z,99.90
2023-01-29T15:01:14.805Z,99.90
2023-01-29T15:03:50.125Z,99.90
2023-01-29T15:06:46.380Z,99.90
2023-01-29T15:09:19.171Z,99.90
2023-01-29T15:18:54.274Z,99.90
2023-01-29T15:25:11.578Z,99.90
2023-01-29T15:28:17.088Z,99.90
2023-01-29T15:31:28.538Z,99.90
2023-01-29T15:34:00.238Z,99.90
2023-01-29T15:36:28.201Z,99.90
2023-01-29T15:39:09.810Z,99.90
2023-01-29T15:41:36.522Z,99.90
2023-01-29T15:44:14.776Z,99.90
2023-01-29T15:46:45.521Z,99.90
2023-01-29T15:49:37.953Z,99.90
2023-01-29T15:52:12.807Z,99.90
2023-01-29T15:54:39.640Z,99.90
2023-01-29T15:57:06.500Z,99.90
2023-01-29T15:59:34.867Z,99.90
2023-01-29T16:02:22.831Z,99.90
2023-01-29T16:04:49.567Z,99.90
2023-01-29T16:07:16.434Z,99.90
2023-01-29T16:09:43.431Z,99.90
2023-01-29T16:12:12.346Z,99.90
2023-01-29T16:14:41.485Z,99.90
2023-01-29T16:17:21.514Z,99.90
2023-01-29T16:19:57.836Z,99.90
2023-01-29T16:22:25.273Z,99.90
2023-01-29T16:24:53.275Z,99.90
2023-01-29T16:27:24.363Z,99.90
2023-01-29T16:29:51.196Z,99.90
2023-01-29T16:32:20.425Z,99.90
2023-01-29T16:34:52.478Z,99.90
2023-01-29T16:37:24.020Z,99.90
2023-01-29T16:39:52.624Z,99.90
2023-01-29T16:42:22.086Z,99.90
2023-01-29T16:44:55.706Z,99.90
2023-01-29T16:47:27.785Z,99.90
2023-01-29T16:49:55.699Z,99.90
2023-01-29T16:52:25.413Z,99.90
2023-01-29T16:54:52.597Z,99.90
2023-01-29T16:57:24.549Z,99.90
2023-01-29T16:59:53.911Z,99.90
2023-01-29T17:02:29.089Z,99.90
2023-01-29T17:04:58.518Z,99.90
2023-01-29T17:07:25.541Z,99.90
2023-01-29T17:09:58.601Z,99.90
2023-01-29T17:12:26.452Z,99.90
2023-01-29T17:14:57.545Z,99.90
2023-01-29T17:17:36.270Z,99.90
2023-01-29T17:20:11.360Z,99.90
2023-01-29T17:22:38.020Z,99.90
2023-01-29T17:25:07.669Z,99.90
2023-01-29T17:27:34.302Z,99.90
2023-01-29T17:30:03.651Z,99.90
2023-01-29T17:32:44.280Z,99.90
2023-01-29T17:35:13.489Z,99.90
2023-01-29T17:37:40.380Z,99.90
2023-01-29T17:40:16.479Z,99.90
2023-01-29T17:42:43.148Z,99.90
2023-01-29T17:45:10.795Z,99.90
2023-01-29T17:47:37.408Z,99.90
2023-01-29T17:50:12.997Z,99.90
2023-01-29T17:52:42.256Z,99.90
2023-01-29T17:55:09.045Z,99.90
2023-01-29T17:57:35.640Z,99.90
2023-01-29T18:00:02.442Z,99.90
2023-01-29T18:02:30.064Z,99.90
2023-01-29T18:04:56.840Z,99.90
2023-01-29T18:07:25.582Z,99.90
2023-01-29T18:09:52.243Z,99.90
2023-01-29T18:12:18.866Z,99.90
2023-01-29T18:14:45.516Z,99.90
2023-01-29T18:17:14.288Z,99.90
2023-01-29T18:19:43.915Z,99.90
2023-01-29T18:22:13.455Z,99.90
2023-01-29T18:24:42.536Z,99.90
2023-01-29T18:27:11.594Z,99.90
2023-01-29T18:29:38.374Z,99.90
2023-01-29T18:32:05.164Z,99.90
2023-01-29T18:34:31.768Z,99.90
2023-01-29T18:37:00.887Z,99.90
2023-01-29T18:39:29.970Z,99.90
2023-01-29T18:41:56.528Z,99.90
2023-01-29T18:44:23.281Z,99.90
2023-01-29T18:46:49.944Z,99.90
2023-01-29T18:49:16.662Z,99.90
2023-01-29T18:51:43.356Z,99.90
2023-01-29T18:54:11.727Z,99.90
2023-01-29T18:56:38.415Z,99.90
2023-01-29T18:59:27.175Z,99.90
2023-01-29T19:01:53.857Z,99.90
2023-01-29T19:04:20.473Z,99.90
2023-01-29T19:06:47.133Z,99.90
2023-01-29T19:09:14.142Z,99.90
2023-01-29T19:11:42.929Z,99.90
2023-01-29T19:14:09.542Z,99.90
2023-01-29T19:16:38.532Z,99.90
2023-01-29T19:19:05.160Z,99.90
2023-01-29T19:21:35.795Z,99.90
2023-01-29T19:24:02.664Z,99.90
2023-01-29T19:26:33.928Z,99.90
2023-01-29T19:29:01.000Z,99.90
2023-01-29T19:31:28.205Z,99.90
2023-01-29T19:33:54.903Z,99.90
2023-01-29T19:36:21.583Z,99.90
2023-01-29T19:38:50.709Z,99.90
2023-01-29T19:41:17.469Z,99.90
2023-01-29T19:43:45.876Z,99.90
2023-01-29T19:46:12.538Z,99.90
2023-01-29T19:48:39.208Z,99.90
2023-01-29T19:51:12.022Z,99.90
2023-01-29T19:53:44.237Z,99.90
2023-01-29T19:56:14.287Z,99.90
2023-01-29T19:58:40.934Z,99.90
2023-01-29T20:01:12.857Z,99.90
2023-01-29T20:03:41.812Z,99.90
2023-01-29T20:06:11.539Z,99.90
2023-01-29T20:08:38.260Z,99.90
2023-01-29T20:11:05.614Z,99.90
2023-01-29T20:13:32.758Z,99.90
2023-01-29T20:16:03.154Z,99.90
2023-01-29T20:18:32.032Z,99.90
2023-01-29T20:20:58.810Z,99.90
2023-01-29T20:23:37.172Z,99.90
2023-01-29T20:26:05.076Z,99.90
2023-01-29T20:28:31.830Z,99.90
2023-01-29T20:31:00.983Z,99.90
2023-01-29T20:33:27.741Z,99.90
2023-01-29T20:35:58.692Z,99.90
2023-01-29T20:38:30.174Z,99.90
2023-01-29T20:41:17.369Z,99.90
2023-01-29T20:43:44.921Z,99.90
2023-01-29T20:46:11.994Z,99.90
2023-01-29T20:48:41.931Z,99.90
2023-01-29T20:51:12.413Z,99.90
2023-01-29T20:53:41.042Z,99.90
2023-01-29T20:56:07.996Z,99.90
2023-01-29T20:58:34.882Z,99.90
2023-01-29T21:01:01.680Z,99.90
2023-01-29T21:03:28.376Z,99.90
2023-01-29T21:05:58.994Z,99.90
2023-01-29T21:08:25.649Z,99.90
2023-01-29T21:10:52.723Z,99.90
2023-01-29T21:13:19.392Z,99.90
2023-01-29T21:15:46.234Z,99.90
2023-01-29T21:18:12.876Z,99.90
2023-01-29T21:20:39.769Z,99.90
2023-01-29T21:23:08.857Z,99.90
2023-01-29T21:25:36.014Z,99.90
2023-01-29T21:28:05.047Z,99.90
2023-01-29T21:30:31.844Z,99.90
2023-01-29T21:32:58.493Z,99.90
2023-01-29T21:35:25.089Z,99.90
2023-01-29T21:37:51.719Z,99.90
2023-01-29T21:40:21.255Z,99.90
2023-01-29T21:43:06.609Z,99.90
2023-01-29T21:45:35.805Z,99.90
2023-01-29T21:48:02.453Z,99.90
2023-01-29T21:50:29.038Z,99.90
2023-01-29T21:52:55.735Z,99.90
2023-01-29T21:55:22.331Z,99.90
2023-01-29T21:57:49.243Z,99.90
2023-01-29T22:00:16.449Z,99.90
2023-01-29T22:02:43.446Z,99.90
2023-01-29T22:05:18.943Z,99.90
2023-01-29T22:07:48.613Z,99.90
2023-01-29T22:10:19.748Z,99.90
2023-01-29T22:12:47.186Z,99.90
2023-01-29T22:15:14.632Z,99.90
2023-01-29T22:17:41.630Z,99.90
2023-01-29T22:20:15.785Z,99.90
2023-01-29T22:22:42.801Z,99.90
2023-01-29T22:25:09.640Z,99.90
2023-01-29T22:27:36.420Z,99.90
2023-01-29T22:30:03.437Z,99.90
2023-01-29T22:32:32.600Z,99.90
2023-01-29T22:34:59.263Z,99.90
2023-01-29T22:37:30.935Z,99.90
2023-01-29T22:39:57.546Z,99.90
2023-01-29T22:42:24.168Z,99.90
2023-01-29T22:44:50.795Z,99.90
2023-01-29T22:47:17.415Z,99.90
2023-01-29T22:49:45.611Z,99.90
2023-01-29T22:52:12.426Z,99.90
2023-01-29T22:54:40.019Z,99.90
2023-01-29T22:57:09.957Z,99.90
2023-01-29T22:59:36.746Z,99.90
2023-01-29T23:02:06.157Z,99.90
2023-01-29T23:04:35.358Z,99.90
2023-01-29T23:07:02.169Z,99.90
2023-01-29T23:09:28.813Z,99.90
2023-01-29T23:11:55.507Z,99.90
2023-01-29T23:14:22.147Z,99.90
2023-01-29T23:16:48.831Z,99.90
2023-01-29T23:19:15.455Z,99.90
2023-01-29T23:21:42.050Z,99.90
2023-01-29T23:24:09.024Z,99.90
2023-01-29T23:26:54.158Z,99.90
2023-01-29T23:29:20.898Z,99.90
2023-01-29T23:31:47.800Z,99.90
2023-01-29T23:34:15.155Z,99.90
2023-01-29T23:36:42.281Z,99.90
2023-01-29T23:39:13.855Z,99.90
2023-01-29T23:41:40.468Z,99.90
2023-01-29T23:44:07.158Z,99.90
2023-01-29T23:46:33.902Z,99.90
2023-01-29T23:49:00.605Z,99.90
2023-01-29T23:51:27.647Z,99.90
2023-01-29T23:53:54.542Z,99.90
2023-01-29T23:56:21.211Z,99.90
2023-01-29T23:58:47.851Z,99.90
